Time;durP1;ratioP1;P1;durP2;ratioP2;P2;SDS_P1;SDS_P2;PMS_P1;PMS_P2;Temp;Humidity;BMP_temperature;BMP_pressure;BME280_temperature;BME280_humidity;BME280_pressure;Samples;Min_cycle;Max_cycle;Signal;HPM_P1;HPM_P2
2024/01/23 00:01:19;;;;;;;12.25;2.10;;;6.60;99.90;;;;;;5036892;28;20080;-66
2024/01/23 00:03:44;;;;;;;15.77;2.28;;;6.60;99.90;;;;;;5031588;28;20068;-64
2024/01/23 00:06:10;;;;;;;13.20;2.47;;;6.60;99.90;;;;;;5043787;28;20049;-65
2024/01/23 00:08:35;;;;;;;11.02;2.30;;;6.50;99.90;;;;;;5039165;28;20067;-64
2024/01/23 00:11:01;;;;;;;16.73;2.60;;;6.60;99.90;;;;;;5034994;28;20046;-66
2024/01/23 00:13:27;;;;;;;20.90;2.38;;;6.60;99.90;;;;;;5039724;28;20072;-65
2024/01/23 00:15:52;;;;;;;13.07;2.90;;;6.50;99.90;;;;;;5052257;28;20049;-64
2024/01/23 00:18:18;;;;;;;15.27;2.60;;;6.50;99.90;;;;;;5043197;28;20253;-67
2024/01/23 00:20:43;;;;;;;16.85;2.88;;;6.50;99.90;;;;;;5045347;28;20033;-65
2024/01/23 00:23:09;;;;;;;12.82;2.60;;;6.50;99.90;;;;;;5034855;28;20038;-65
2024/01/23 00:25:35;;;;;;;18.60;2.97;;;6.50;99.90;;;;;;5039323;28;20071;-66
2024/01/23 00:28:00;;;;;;;10.98;2.20;;;6.50;99.90;;;;;;5030858;28;20331;-65
2024/01/23 00:30:26;;;;;;;19.67;2.95;;;6.50;99.90;;;;;;5029103;28;20057;-66
2024/01/23 00:32:51;;;;;;;17.67;2.67;;;6.40;99.90;;;;;;5028968;28;20041;-64
2024/01/23 00:35:17;;;;;;;13.63;2.80;;;6.50;99.90;;;;;;5042864;28;20430;-65
2024/01/23 00:37:43;;;;;;;13.40;2.05;;;6.40;99.90;;;;;;5047856;28;20041;-65
2024/01/23 00:40:12;;;;;;;11.80;2.40;;;6.30;99.90;;;;;;5033182;28;20041;-63
2024/01/23 00:42:38;;;;;;;12.82;2.28;;;6.40;99.90;;;;;;5042046;28;20051;-64
2024/01/23 00:45:03;;;;;;;13.88;2.67;;;6.30;99.90;;;;;;5032580;28;20041;-64
2024/01/23 00:47:30;;;;;;;14.50;2.65;;;6.30;99.90;;;;;;5043784;28;20473;-65
2024/01/23 00:49:56;;;;;;;18.70;2.78;;;6.40;99.90;;;;;;5023407;28;20095;-64
2024/01/23 00:52:22;;;;;;;15.80;2.30;;;6.40;99.90;;;;;;5035921;28;20069;-65
2024/01/23 00:54:48;;;;;;;12.45;2.47;;;6.40;99.90;;;;;;5031594;28;20032;-64
2024/01/23 00:57:13;;;;;;;11.55;2.25;;;6.60;99.90;;;;;;5031343;28;20358;-64
2024/01/23 00:59:39;;;;;;;16.40;2.15;;;6.60;99.90;;;;;;5031515;28;20434;-65
2024/01/23 01:02:04;;;;;;;14.07;2.80;;;6.60;99.90;;;;;;5029925;28;20094;-65
2024/01/23 01:04:30;;;;;;;14.05;2.70;;;6.60;99.90;;;;;;5032511;28;20068;-68
2024/01/23 01:06:56;;;;;;;17.13;2.55;;;6.70;99.90;;;;;;5033392;28;20045;-68
2024/01/23 01:09:21;;;;;;;20.13;2.80;;;6.70;99.90;;;;;;5037773;28;20045;-67
2024/01/23 01:11:47;;;;;;;16.70;2.63;;;6.70;99.90;;;;;;5031411;28;20037;-67
2024/01/23 01:14:13;;;;;;;15.35;2.78;;;6.70;99.90;;;;;;5031446;28;20478;-68
2024/01/23 01:16:39;;;;;;;13.07;2.67;;;6.70;99.90;;;;;;5024533;28;20037;-68
2024/01/23 01:19:04;;;;;;;12.50;2.22;;;6.70;99.90;;;;;;5026074;28;20043;-69
2024/01/23 01:21:30;;;;;;;13.20;2.60;;;6.70;99.90;;;;;;5028069;28;20047;-67
2024/01/23 01:23:56;;;;;;;13.18;2.63;;;6.70;99.90;;;;;;5026685;28;20037;-68
2024/01/23 01:26:21;;;;;;;12.63;2.45;;;6.70;99.90;;;;;;5025742;28;20068;-67
2024/01/23 01:28:47;;;;;;;18.33;3.28;;;6.70;99.90;;;;;;5030880;28;20099;-69
2024/01/23 01:31:12;;;;;;;15.50;2.85;;;6.70;99.90;;;;;;5032258;28;20135;-67
2024/01/23 01:33:38;;;;;;;14.35;1.98;;;6.70;99.90;;;;;;5037921;28;20088;-68
2024/01/23 01:36:04;;;;;;;13.50;2.47;;;6.70;99.90;;;;;;5040278;28;20433;-69
2024/01/23 01:38:30;;;;;;;20.67;2.58;;;6.60;99.90;;;;;;5044949;28;20036;-69
2024/01/23 01:40:58;;;;;;;10.80;2.35;;;6.60;99.90;;;;;;5046204;28;20033;-69
2024/01/23 01:43:26;;;;;;;14.27;2.88;;;6.60;99.90;;;;;;5037852;28;20051;-69
2024/01/23 01:46:12;;;;;;;14.50;2.40;;;6.60;99.90;;;;;;5049266;28;20045;-68
2024/01/23 01:48:41;;;;;;;11.65;2.33;;;6.60;99.90;;;;;;5016700;28;20041;-68
2024/01/23 01:51:08;;;;;;;14.18;2.58;;;6.60;99.90;;;;;;5037615;28;20048;-68
2024/01/23 01:53:34;;;;;;;21.60;2.83;;;6.60;99.90;;;;;;5032344;28;20087;-68
2024/01/23 01:56:02;;;;;;;14.40;2.97;;;6.60;99.90;;;;;;5027341;28;20036;-68
2024/01/23 01:58:30;;;;;;;15.95;2.92;;;6.60;99.90;;;;;;5040629;28;20087;-67
2024/01/23 02:00:57;;;;;;;15.43;2.22;;;6.50;99.90;;;;;;5046495;28;20574;-66
2024/01/23 02:03:23;;;;;;;19.90;2.55;;;6.50;99.90;;;;;;5028248;28;20232;-68
2024/01/23 02:05:50;;;;;;;17.05;3.63;;;6.40;99.90;;;;;;5039062;28;20132;-68
2024/01/23 02:08:16;;;;;;;15.73;3.13;;;6.30;99.90;;;;;;5032528;28;20132;-67
2024/01/23 02:10:43;;;;;;;15.52;2.75;;;6.30;99.90;;;;;;5041507;28;20087;-69
2024/01/23 02:13:08;;;;;;;12.43;2.50;;;6.30;99.90;;;;;;5047328;28;20130;-70
2024/01/23 02:15:34;;;;;;;15.40;3.05;;;6.30;99.90;;;;;;5044344;28;20069;-68
2024/01/23 02:18:00;;;;;;;13.05;2.83;;;6.20;99.90;;;;;;5034058;28;20029;-68
2024/01/23 02:20:26;;;;;;;16.83;2.72;;;6.20;99.90;;;;;;5044873;28;20971;-68
2024/01/23 02:22:53;;;;;;;16.92;2.78;;;6.20;99.90;;;;;;5051363;28;20033;-67
2024/01/23 02:25:18;;;;;;;15.75;2.50;;;6.20;99.90;;;;;;5038899;28;20619;-68
2024/01/23 02:27:44;;;;;;;13.63;2.50;;;6.20;99.90;;;;;;5042047;28;20048;-66
2024/01/23 02:30:10;;;;;;;15.48;2.35;;;6.20;99.90;;;;;;5030916;28;20640;-69
2024/01/23 02:32:36;;;;;;;13.60;2.40;;;6.10;99.90;;;;;;5031595;28;20056;-68
2024/01/23 02:35:02;;;;;;;14.90;3.03;;;6.10;99.90;;;;;;5039891;28;20049;-69
2024/01/23 02:37:27;;;;;;;14.13;2.38;;;6.10;99.90;;;;;;5034781;28;20055;-68
2024/01/23 02:39:53;;;;;;;18.58;3.05;;;6.10;99.90;;;;;;5058531;28;20127;-69
2024/01/23 02:42:19;;;;;;;12.55;2.65;;;6.00;99.90;;;;;;5038579;28;20068;-69
2024/01/23 02:44:47;;;;;;;13.77;2.63;;;6.00;99.90;;;;;;5043647;28;20116;-69
2024/01/23 02:47:13;;;;;;;13.50;2.38;;;6.00;99.90;;;;;;5048403;28;20435;-68
2024/01/23 02:49:39;;;;;;;16.45;3.28;;;6.00;99.90;;;;;;5061603;28;20036;-69
2024/01/23 02:52:05;;;;;;;15.75;2.88;;;6.00;99.90;;;;;;5039865;28;20044;-68
2024/01/23 02:54:31;;;;;;;17.98;3.03;;;6.00;99.90;;;;;;5051896;28;20240;-68
2024/01/23 02:56:57;;;;;;;18.70;3.20;;;6.00;99.90;;;;;;5044336;28;20045;-69
2024/01/23 02:59:23;;;;;;;15.20;2.70;;;6.00;99.90;;;;;;5031485;28;22395;-69
2024/01/23 03:01:48;;;;;;;14.68;2.75;;;6.00;99.90;;;;;;5035713;28;20524;-68
2024/01/23 03:04:14;;;;;;;19.80;3.38;;;6.10;99.90;;;;;;5039477;28;20086;-68
2024/01/23 03:06:40;;;;;;;14.45;2.70;;;6.10;99.90;;;;;;5047476;28;20033;-67
2024/01/23 03:09:06;;;;;;;12.73;2.65;;;6.10;99.90;;;;;;5038887;28;20503;-66
2024/01/23 03:11:32;;;;;;;16.73;3.15;;;6.10;99.90;;;;;;5034438;28;20060;-67
2024/01/23 03:13:58;;;;;;;12.80;2.40;;;6.10;99.90;;;;;;5023666;28;20193;-66
2024/01/23 03:16:23;;;;;;;14.32;2.63;;;6.20;99.90;;;;;;5044413;28;20485;-67
2024/01/23 03:18:49;;;;;;;17.65;3.08;;;6.20;99.90;;;;;;5050468;28;20032;-69
2024/01/23 03:21:15;;;;;;;16.08;4.20;;;6.20;99.90;;;;;;5034671;28;20033;-69
2024/01/23 03:23:41;;;;;;;16.20;2.83;;;6.20;99.90;;;;;;5030815;28;20358;-67
2024/01/23 03:26:07;;;;;;;15.27;2.95;;;6.30;99.90;;;;;;5039084;28;20024;-68
2024/01/23 03:28:32;;;;;;;14.75;2.63;;;6.30;99.90;;;;;;5031883;28;20047;-68
2024/01/23 03:30:58;;;;;;;18.50;3.00;;;6.30;99.90;;;;;;5043972;28;20393;-67
2024/01/23 03:33:23;;;;;;;13.70;2.70;;;6.30;99.90;;;;;;5038585;28;20061;-68
2024/01/23 03:35:49;;;;;;;17.42;2.53;;;6.30;99.90;;;;;;5040323;28;20044;-67
2024/01/23 03:38:15;;;;;;;14.52;2.92;;;6.40;99.90;;;;;;5044163;28;20043;-68
2024/01/23 03:40:40;;;;;;;19.85;3.28;;;6.30;99.90;;;;;;5039508;28;20048;-70
2024/01/23 03:43:06;;;;;;;18.80;2.97;;;6.30;99.90;;;;;;5042969;28;20041;-67
2024/01/23 03:45:32;;;;;;;13.93;2.78;;;6.30;99.90;;;;;;5032335;28;20788;-69
2024/01/23 03:47:57;;;;;;;18.00;4.07;;;6.30;99.90;;;;;;5045101;28;20032;-69
2024/01/23 03:50:23;;;;;;;13.90;2.55;;;6.40;99.90;;;;;;5034451;28;20542;-70
2024/01/23 03:52:49;;;;;;;17.88;3.97;;;6.30;99.90;;;;;;5038661;28;20037;-68
2024/01/23 03:55:15;;;;;;;17.60;3.72;;;6.40;99.90;;;;;;5039304;28;20038;-67
2024/01/23 03:57:40;;;;;;;18.55;3.17;;;6.40;99.90;;;;;;5030139;28;20075;-67
2024/01/23 04:00:07;;;;;;;13.50;2.75;;;6.40;99.90;;;;;;5044204;28;20037;-67
2024/01/23 04:02:36;;;;;;;20.95;3.30;;;6.40;99.90;;;;;;5014494;28;20063;-69
2024/01/23 04:05:03;;;;;;;19.67;3.58;;;6.50;99.90;;;;;;5032081;28;20045;-68
2024/01/23 04:07:29;;;;;;;17.25;2.80;;;6.50;99.90;;;;;;5049514;28;20047;-67
2024/01/23 04:09:55;;;;;;;14.18;2.90;;;6.40;99.90;;;;;;5033501;28;20045;-68
2024/01/23 04:12:20;;;;;;;28.55;3.60;;;6.50;99.90;;;;;;5039215;28;20553;-69
2024/01/23 04:14:46;;;;;;;18.80;3.78;;;6.50;99.90;;;;;;5036377;28;20037;-69
2024/01/23 04:17:12;;;;;;;21.73;3.60;;;6.50;99.90;;;;;;5042275;28;20409;-69
2024/01/23 04:19:37;;;;;;;17.08;3.75;;;6.50;99.90;;;;;;5042564;28;20052;-68
2024/01/23 04:22:03;;;;;;;21.05;3.25;;;6.50;99.90;;;;;;5029868;28;20503;-67
2024/01/23 04:24:29;;;;;;;17.05;3.65;;;6.50;99.90;;;;;;5036247;28;20619;-69
2024/01/23 04:26:55;;;;;;;27.00;3.42;;;6.50;99.90;;;;;;5039302;28;20045;-68
2024/01/23 04:29:20;;;;;;;18.52;3.17;;;6.60;99.90;;;;;;5030679;28;20179;-68
2024/01/23 04:31:46;;;;;;;28.65;4.30;;;6.50;99.90;;;;;;5030453;28;20053;-67
2024/01/23 04:34:11;;;;;;;27.48;3.65;;;6.50;99.90;;;;;;5037920;28;20079;-67
2024/01/23 04:36:37;;;;;;;19.75;3.40;;;6.50;99.90;;;;;;5017894;28;20112;-68
2024/01/23 04:39:04;;;;;;;21.00;3.42;;;6.60;99.90;;;;;;5031375;28;20053;-68
2024/01/23 04:41:30;;;;;;;20.80;4.13;;;6.60;99.90;;;;;;5032226;28;20488;-68
2024/01/23 04:43:56;;;;;;;25.10;4.30;;;6.60;99.90;;;;;;5030612;28;20041;-67
2024/01/23 04:46:21;;;;;;;18.35;3.25;;;6.60;99.90;;;;;;5047433;28;20042;-69
2024/01/23 04:48:47;;;;;;;21.20;3.30;;;6.60;99.90;;;;;;5030238;28;20056;-69
2024/01/23 04:51:13;;;;;;;21.05;3.20;;;6.70;99.90;;;;;;5045177;28;20040;-68
2024/01/23 04:53:39;;;;;;;19.90;3.33;;;6.70;99.90;;;;;;5046914;28;20128;-67
2024/01/23 04:56:04;;;;;;;17.77;3.25;;;6.70;99.90;;;;;;5044913;28;20369;-66
2024/01/23 04:58:30;;;;;;;23.45;3.70;;;6.70;99.90;;;;;;5032215;28;20113;-67
2024/01/23 05:00:56;;;;;;;19.98;3.42;;;6.70;99.90;;;;;;5041380;28;20639;-68
2024/01/23 05:03:21;;;;;;;20.88;4.15;;;6.80;99.90;;;;;;5043427;28;20171;-66
2024/01/23 05:05:47;;;;;;;23.15;3.83;;;6.80;99.90;;;;;;5029070;28;20041;-69
2024/01/23 05:08:15;;;;;;;22.02;3.83;;;6.80;99.90;;;;;;5042975;28;20127;-69
2024/01/23 05:10:43;;;;;;;30.58;3.90;;;6.80;99.90;;;;;;5031601;28;20111;-69
2024/01/23 05:13:08;;;;;;;17.08;3.40;;;6.80;99.90;;;;;;5048228;28;20061;-68
2024/01/23 05:15:34;;;;;;;28.15;3.97;;;6.80;99.90;;;;;;5031120;28;20036;-68
2024/01/23 05:18:00;;;;;;;17.63;3.95;;;6.80;99.90;;;;;;5036101;28;20362;-68
2024/01/23 05:20:25;;;;;;;15.20;3.90;;;6.80;99.90;;;;;;5031934;28;20041;-70
2024/01/23 05:22:51;;;;;;;26.17;3.38;;;6.80;99.90;;;;;;5031001;28;20053;-67
2024/01/23 05:25:17;;;;;;;29.35;3.92;;;6.80;99.90;;;;;;5044711;28;20119;-68
2024/01/23 05:27:43;;;;;;;16.42;3.63;;;6.70;99.90;;;;;;5039218;28;20489;-69
2024/01/23 05:30:09;;;;;;;17.42;3.30;;;6.70;99.90;;;;;;5036661;28;20050;-68
2024/01/23 05:32:35;;;;;;;23.88;3.97;;;6.80;99.90;;;;;;5030367;28;20045;-69
2024/01/23 05:35:03;;;;;;;17.73;4.05;;;6.80;99.90;;;;;;5040280;28;20369;-67
2024/01/23 05:37:30;;;;;;;20.45;4.03;;;6.70;99.90;;;;;;5040434;28;20579;-68
2024/01/23 05:39:55;;;;;;;22.63;4.13;;;6.70;99.90;;;;;;5030931;28;20060;-70
2024/01/23 05:42:21;;;;;;;23.38;4.47;;;6.80;99.90;;;;;;5040447;28;20041;-69
2024/01/23 05:44:47;;;;;;;19.00;3.78;;;6.80;99.90;;;;;;5033245;28;20048;-69
2024/01/23 05:47:12;;;;;;;30.25;3.88;;;6.80;99.90;;;;;;5029808;28;20044;-68
2024/01/23 05:49:38;;;;;;;19.40;4.10;;;6.80;99.90;;;;;;5036444;28;20045;-68
2024/01/23 05:52:04;;;;;;;20.08;4.35;;;6.80;99.90;;;;;;5036859;28;20370;-70
2024/01/23 05:54:29;;;;;;;21.40;4.47;;;6.80;99.90;;;;;;5034720;28;20119;-68
2024/01/23 05:56:55;;;;;;;23.98;4.90;;;6.80;99.90;;;;;;5031436;28;20590;-67
2024/01/23 05:59:21;;;;;;;28.85;4.00;;;6.80;99.90;;;;;;5035199;28;20111;-68
2024/01/23 06:01:46;;;;;;;24.50;3.88;;;6.80;99.90;;;;;;5037780;28;20045;-68
2024/01/23 06:04:12;;;;;;;29.80;4.38;;;6.80;99.90;;;;;;5038796;28;20802;-68
2024/01/23 06:06:42;;;;;;;36.10;5.10;;;6.80;99.90;;;;;;5037085;28;20159;-69
2024/01/23 06:09:11;;;;;;;27.08;4.03;;;6.80;99.90;;;;;;5032300;28;20052;-69
2024/01/23 06:11:40;;;;;;;29.25;4.90;;;6.80;99.90;;;;;;5034618;28;20421;-68
2024/01/23 06:14:06;;;;;;;22.30;4.28;;;6.80;99.90;;;;;;5027176;28;20434;-69
2024/01/23 06:16:31;;;;;;;20.23;4.10;;;6.80;99.90;;;;;;5040270;28;20095;-69
2024/01/23 06:18:57;;;;;;;25.25;4.47;;;6.70;99.90;;;;;;5045100;28;20029;-67
2024/01/23 06:21:22;;;;;;;26.13;5.18;;;6.80;99.90;;;;;;5030059;28;20211;-67
2024/01/23 06:23:48;;;;;;;30.65;5.40;;;6.70;99.90;;;;;;5036717;28;20052;-69
2024/01/23 06:26:13;;;;;;;23.90;4.32;;;6.80;99.90;;;;;;5038926;28;20034;-68
2024/01/23 06:28:39;;;;;;;25.80;4.45;;;6.80;99.90;;;;;;5026367;28;20037;-69
2024/01/23 06:31:05;;;;;;;24.52;4.22;;;6.70;99.90;;;;;;5030934;28;20177;-67
2024/01/23 06:33:31;;;;;;;30.52;3.95;;;6.80;99.90;;;;;;5027508;28;20153;-70
2024/01/23 06:35:57;;;;;;;24.60;4.10;;;6.80;99.90;;;;;;5031776;28;20056;-66
2024/01/23 06:38:23;;;;;;;23.85;4.28;;;6.80;99.90;;;;;;5033515;28;20098;-69
2024/01/23 06:40:48;;;;;;;24.08;4.55;;;6.80;99.90;;;;;;5029333;28;20036;-68
2024/01/23 06:43:14;;;;;;;27.40;4.35;;;6.80;99.90;;;;;;5039247;28;20037;-67
2024/01/23 06:45:39;;;;;;;18.55;3.75;;;6.70;99.90;;;;;;5045043;28;20052;-69
2024/01/23 06:48:05;;;;;;;29.20;5.10;;;6.70;99.90;;;;;;5037308;28;20041;-69
2024/01/23 06:50:31;;;;;;;28.23;4.30;;;6.70;99.90;;;;;;5045937;28;20058;-68
2024/01/23 06:52:56;;;;;;;32.60;5.50;;;6.60;99.90;;;;;;5034943;28;20154;-67
2024/01/23 06:55:22;;;;;;;20.67;3.90;;;6.60;99.90;;;;;;5043029;28;20029;-70
2024/01/23 06:57:48;;;;;;;26.25;4.35;;;6.50;99.90;;;;;;5034701;28;20044;-68
2024/01/23 07:00:14;;;;;;;30.20;4.28;;;6.40;99.90;;;;;;5040770;28;20079;-70
2024/01/23 07:02:39;;;;;;;29.42;4.47;;;6.40;99.90;;;;;;5033833;28;20377;-69
2024/01/23 07:05:06;;;;;;;25.30;5.03;;;6.30;99.90;;;;;;5031736;28;20046;-70
2024/01/23 07:07:31;;;;;;;28.85;4.97;;;6.30;99.90;;;;;;5045074;28;20095;-69
2024/01/23 07:09:57;;;;;;;28.17;4.13;;;6.30;99.90;;;;;;5043647;28;20033;-70
2024/01/23 07:12:22;;;;;;;28.58;4.75;;;6.30;99.90;;;;;;5043708;28;20048;-69
2024/01/23 07:14:48;;;;;;;29.58;4.85;;;6.20;99.90;;;;;;5048041;28;20039;-68
2024/01/23 07:17:15;;;;;;;22.25;3.88;;;6.20;99.90;;;;;;5042045;28;20060;-68
2024/01/23 07:19:41;;;;;;;32.90;5.57;;;6.20;99.90;;;;;;5027111;28;20127;-68
2024/01/23 07:22:07;;;;;;;32.15;4.63;;;6.10;99.90;;;;;;5035142;28;20152;-70
2024/01/23 07:24:32;;;;;;;28.48;5.63;;;6.10;99.90;;;;;;5038659;28;20568;-68
2024/01/23 07:26:58;;;;;;;28.77;5.55;;;6.10;99.90;;;;;;5048316;28;20091;-70
2024/01/23 07:29:23;;;;;;;35.38;4.65;;;6.00;99.90;;;;;;5049208;28;20101;-68
2024/01/23 07:31:49;;;;;;;24.83;5.53;;;5.90;99.90;;;;;;5045474;28;20110;-68
2024/01/23 07:34:15;;;;;;;31.23;4.47;;;5.90;99.90;;;;;;5044512;28;20115;-69
2024/01/23 07:36:40;;;;;;;32.70;5.38;;;5.90;99.90;;;;;;5047189;28;20040;-68
2024/01/23 07:39:06;;;;;;;30.17;5.22;;;5.80;99.90;;;;;;5049638;28;20174;-69
2024/01/23 07:41:31;;;;;;;31.27;5.55;;;5.90;99.90;;;;;;5044943;28;20075;-70
2024/01/23 07:43:57;;;;;;;28.10;5.10;;;5.90;99.90;;;;;;5047071;28;20362;-69
2024/01/23 07:46:23;;;;;;;27.98;5.18;;;5.90;99.90;;;;;;5050134;28;20037;-69
2024/01/23 07:48:49;;;;;;;27.23;4.95;;;5.90;99.90;;;;;;5048676;28;20076;-68
2024/01/23 07:51:14;;;;;;;30.85;5.20;;;5.90;99.90;;;;;;5049204;28;20131;-69
2024/01/23 07:53:43;;;;;;;31.67;5.60;;;5.90;99.90;;;;;;5033389;28;20045;-67
2024/01/23 07:56:08;;;;;;;27.02;4.57;;;5.80;99.90;;;;;;5045435;28;20044;-69
2024/01/23 07:58:34;;;;;;;26.80;4.47;;;5.90;99.90;;;;;;5013458;28;20103;-68
2024/01/23 08:01:00;;;;;;;29.52;4.93;;;5.90;99.90;;;;;;5047316;28;20433;-68
2024/01/23 08:03:25;;;;;;;29.27;4.75;;;5.90;99.90;;;;;;5037887;28;20469;-69
2024/01/23 08:05:51;;;;;;;24.65;4.70;;;5.80;99.90;;;;;;5046730;28;20041;-70
2024/01/23 08:08:17;;;;;;;29.40;4.65;;;5.80;99.90;;;;;;5049994;28;20385;-68
2024/01/23 08:10:43;;;;;;;26.80;3.67;;;5.90;99.90;;;;;;5039967;28;20103;-67
2024/01/23 08:13:08;;;;;;;27.73;4.85;;;5.90;99.90;;;;;;5048306;28;20538;-67
2024/01/23 08:15:34;;;;;;;23.55;4.78;;;6.00;99.90;;;;;;5047181;28;20039;-69
2024/01/23 08:18:03;;;;;;;35.92;4.68;;;6.00;99.90;;;;;;5048541;28;20423;-69
2024/01/23 08:20:30;;;;;;;35.38;4.47;;;5.90;99.90;;;;;;5045567;28;20098;-68
2024/01/23 08:22:55;;;;;;;29.10;5.22;;;5.90;99.90;;;;;;5047225;28;20528;-67
2024/01/23 08:25:22;;;;;;;36.75;5.85;;;5.90;99.90;;;;;;5048522;28;20060;-69
2024/01/23 08:27:48;;;;;;;26.80;3.83;;;5.90;99.90;;;;;;5048251;28;20939;-71
2024/01/23 08:30:15;;;;;;;25.27;5.30;;;5.90;99.90;;;;;;5042715;28;20057;-69
2024/01/23 08:32:41;;;;;;;27.35;5.45;;;5.90;99.90;;;;;;5039525;28;20048;-66
2024/01/23 08:35:07;;;;;;;24.13;4.53;;;5.90;99.90;;;;;;5048173;28;20037;-69
2024/01/23 08:37:32;;;;;;;30.55;4.40;;;5.90;99.90;;;;;;5049912;28;20059;-69
2024/01/23 08:39:58;;;;;;;25.67;4.90;;;6.00;99.90;;;;;;5041673;28;20338;-68
2024/01/23 08:42:24;;;;;;;29.85;5.57;;;6.00;99.90;;;;;;5040259;28;20161;-69
2024/01/23 08:44:50;;;;;;;23.55;4.43;;;6.00;99.90;;;;;;5028260;28;20063;-69
2024/01/23 08:47:16;;;;;;;30.60;4.60;;;6.10;99.90;;;;;;5046454;28;20124;-67
2024/01/23 08:49:42;;;;;;;28.25;4.55;;;6.10;99.90;;;;;;5048060;28;20399;-69
2024/01/23 08:52:07;;;;;;;29.77;4.22;;;6.10;99.90;;;;;;5055504;28;20045;-68
2024/01/23 08:54:34;;;;;;;31.83;5.03;;;6.10;99.90;;;;;;5068607;28;20036;-70
2024/01/23 08:57:00;;;;;;;24.13;4.72;;;6.10;99.90;;;;;;5048401;28;20045;-70
2024/01/23 08:59:28;;;;;;;22.25;4.25;;;6.20;99.90;;;;;;5044421;28;20047;-68
2024/01/23 09:01:54;;;;;;;31.55;4.45;;;6.20;99.90;;;;;;5040255;28;20106;-69
2024/01/23 09:04:20;;;;;;;24.05;4.68;;;6.30;99.90;;;;;;5046679;28;20884;-67
2024/01/23 09:06:46;;;;;;;26.77;4.82;;;6.20;99.90;;;;;;5037617;28;20041;-69
2024/01/23 09:09:11;;;;;;;34.65;4.68;;;6.30;99.90;;;;;;5034202;28;20083;-68
2024/01/23 09:11:37;;;;;;;27.70;4.75;;;6.40;99.90;;;;;;5036466;28;20083;-69
2024/01/23 09:14:03;;;;;;;36.17;4.68;;;6.40;99.90;;;;;;5040344;28;20029;-68
2024/01/23 09:16:28;;;;;;;31.52;4.45;;;6.40;99.90;;;;;;5036690;28;20049;-70
2024/01/23 09:18:55;;;;;;;32.58;4.97;;;6.40;99.90;;;;;;5038717;28;20033;-69
2024/01/23 09:21:24;;;;;;;30.77;4.53;;;6.40;99.90;;;;;;5041311;28;20411;-69
2024/01/23 09:23:50;;;;;;;31.98;4.15;;;6.50;99.90;;;;;;5029862;28;20071;-67
2024/01/23 09:26:16;;;;;;;29.10;4.93;;;6.50;99.90;;;;;;5009384;28;20411;-67
2024/01/23 09:28:41;;;;;;;27.65;4.20;;;6.60;99.90;;;;;;5012125;28;20163;-70
2024/01/23 09:31:08;;;;;;;27.48;4.38;;;6.70;99.90;;;;;;5034818;28;20085;-71
2024/01/23 09:33:35;;;;;;;30.35;4.40;;;6.70;99.90;;;;;;5041342;28;20076;-69
2024/01/23 09:36:00;;;;;;;24.02;5.63;;;6.70;99.90;;;;;;5049293;28;20150;-68
2024/01/23 09:38:26;;;;;;;28.25;4.13;;;6.70;99.90;;;;;;5043364;28;20037;-67
2024/01/23 09:40:52;;;;;;;23.85;4.25;;;6.80;99.90;;;;;;5043772;28;20044;-68
2024/01/23 09:43:21;;;;;;;25.05;4.07;;;6.80;99.90;;;;;;5049925;28;20420;-70
2024/01/23 09:45:49;;;;;;;24.80;5.00;;;6.90;99.90;;;;;;5026065;28;20377;-69
2024/01/23 09:48:15;;;;;;;23.02;4.32;;;7.00;99.90;;;;;;5042299;28;20091;-69
2024/01/23 09:50:44;;;;;;;22.17;3.83;;;7.00;99.90;;;;;;5047557;28;20132;-68
2024/01/23 09:53:10;;;;;;;29.50;5.32;;;7.10;99.90;;;;;;5049235;28;20124;-67
2024/01/23 09:55:36;;;;;;;24.90;4.70;;;7.10;99.90;;;;;;5046030;28;20048;-70
2024/01/23 09:58:06;;;;;;;34.30;5.35;;;7.20;99.90;;;;;;5031620;28;20041;-67
2024/01/23 10:00:32;;;;;;;19.70;4.90;;;7.30;99.90;;;;;;5033197;28;20037;-67
2024/01/23 10:02:58;;;;;;;25.45;4.55;;;7.30;99.90;;;;;;5041423;28;20547;-69
2024/01/23 10:05:24;;;;;;;32.60;5.88;;;7.40;99.90;;;;;;5030251;28;20040;-70
2024/01/23 10:07:49;;;;;;;21.40;4.40;;;7.50;99.90;;;;;;5040432;28;20588;-69
2024/01/23 10:10:17;;;;;;;28.05;5.05;;;7.50;99.90;;;;;;5032324;28;20481;-69
2024/01/23 10:12:49;;;;;;;29.88;4.70;;;7.50;99.90;;;;;;5042096;28;20473;-69
2024/01/23 10:15:18;;;;;;;24.30;4.38;;;7.40;99.90;;;;;;5041882;28;20458;-69
2024/01/23 10:17:45;;;;;;;24.92;4.95;;;7.40;99.90;;;;;;5046682;28;20106;-69
2024/01/23 10:20:11;;;;;;;25.55;4.20;;;7.60;99.90;;;;;;5046191;28;20485;-70
2024/01/23 10:22:36;;;;;;;28.05;4.28;;;7.60;99.90;;;;;;5043905;28;20132;-69
2024/01/23 10:25:03;;;;;;;23.48;4.45;;;7.60;99.90;;;;;;5029891;28;20060;-69
2024/01/23 10:27:30;;;;;;;30.77;5.13;;;7.70;99.90;;;;;;5027667;28;20053;-69
2024/01/23 10:29:56;;;;;;;27.40;5.32;;;7.60;99.90;;;;;;5044731;28;20065;-70
2024/01/23 10:32:23;;;;;;;28.20;5.43;;;7.70;99.90;;;;;;5028414;28;20092;-68
2024/01/23 10:34:53;;;;;;;31.85;4.53;;;7.80;99.90;;;;;;5045881;28;20068;-70
2024/01/23 10:37:20;;;;;;;27.67;4.30;;;7.80;99.90;;;;;;5039985;28;20037;-68
2024/01/23 10:39:47;;;;;;;29.55;5.10;;;7.80;99.90;;;;;;5035084;28;20118;-69
2024/01/23 10:42:13;;;;;;;23.40;4.00;;;7.80;99.90;;;;;;5042211;28;20046;-69
2024/01/23 10:44:41;;;;;;;29.25;4.75;;;7.80;99.90;;;;;;5036739;28;20063;-69
2024/01/23 10:47:07;;;;;;;26.98;4.22;;;7.80;99.90;;;;;;5043998;28;20048;-70
2024/01/23 10:49:32;;;;;;;29.25;5.10;;;7.80;99.90;;;;;;5049464;28;20037;-71
2024/01/23 10:52:03;;;;;;;21.75;4.68;;;7.80;99.90;;;;;;5049274;28;20045;-72
2024/01/23 10:54:31;;;;;;;19.08;3.92;;;7.80;99.90;;;;;;5042258;28;20192;-69
2024/01/23 10:57:04;;;;;;;22.30;3.60;;;7.60;99.90;;;;;;5048708;28;20405;-70
2024/01/23 10:59:30;;;;;;;25.05;5.00;;;7.60;99.90;;;;;;5049329;28;20041;-71
2024/01/23 11:02:06;;;;;;;25.02;4.28;;;7.60;99.90;;;;;;5050199;28;20431;-69
2024/01/23 11:04:32;;;;;;;25.88;5.13;;;7.60;99.90;;;;;;5043117;28;20039;-71
2024/01/23 11:07:06;;;;;;;27.15;4.68;;;7.60;99.90;;;;;;5053585;28;20083;-70
2024/01/23 11:10:00;;;;;;;25.65;4.10;;;7.70;99.90;;;;;;5050363;28;20045;-70
2024/01/23 11:12:50;;;;;;;30.65;5.25;;;7.70;99.90;;;;;;5040348;28;20457;-69
2024/01/23 11:15:16;;;;;;;;;;;7.80;99.90;;;;;;5044781;28;20489;-69
2024/01/23 11:17:42;;;;;;;25.90;3.83;;;7.80;99.90;;;;;;5049229;28;20023;-70
2024/01/23 11:20:15;;;;;;;21.35;4.72;;;7.80;99.90;;;;;;5052413;28;20462;-69
2024/01/23 11:22:41;;;;;;;26.08;3.95;;;7.90;99.90;;;;;;5040755;28;20034;-68
2024/01/23 11:25:10;;;;;;;31.48;4.72;;;7.90;99.90;;;;;;5033124;28;20040;-69
2024/01/23 11:27:39;;;;;;;25.42;4.22;;;7.90;99.90;;;;;;5031624;28;20041;-70
2024/01/23 11:30:12;;;;;;;21.77;3.97;;;8.00;99.90;;;;;;5045439;28;20512;-70
2024/01/23 11:32:38;;;;;;;25.98;3.67;;;8.10;99.90;;;;;;5045684;28;20045;-69
2024/01/23 11:35:07;;;;;;;22.08;4.38;;;8.10;99.90;;;;;;5050782;28;20044;-68
2024/01/23 11:37:33;;;;;;;29.55;4.00;;;8.10;99.90;;;;;;5032734;28;20444;-68
2024/01/23 11:40:06;;;;;;;28.17;5.35;;;8.10;99.90;;;;;;5031320;28;20128;-71
2024/01/23 11:42:41;;;;;;;25.38;4.18;;;8.00;99.90;;;;;;5039202;28;20119;-69
2024/01/23 11:45:25;;;;;;;23.30;4.38;;;8.00;99.90;;;;;;5031118;28;20116;-71
2024/01/23 11:47:58;;;;;;;20.05;3.78;;;7.90;99.90;;;;;;5047774;28;20140;-68
2024/01/23 11:50:26;;;;;;;28.40;4.53;;;7.90;99.90;;;;;;5046663;28;20044;-70
2024/01/23 11:52:54;;;;;;;27.85;3.90;;;8.00;99.90;;;;;;5049656;28;20094;-68
2024/01/23 11:55:20;;;;;;;25.77;5.25;;;8.00;99.90;;;;;;5049739;28;20417;-70
2024/01/23 11:57:54;;;;;;;22.42;3.80;;;8.00;99.90;;;;;;5031715;28;20037;-69
2024/01/23 12:00:20;;;;;;;33.17;4.32;;;7.90;99.90;;;;;;5033946;28;20068;-70
2024/01/23 12:02:47;;;;;;;23.00;5.13;;;8.00;99.90;;;;;;5042843;28;20075;-71
2024/01/23 12:05:13;;;;;;;22.33;5.30;;;8.00;99.90;;;;;;5039690;28;20128;-69
2024/01/23 12:07:40;;;;;;;25.63;4.75;;;8.00;99.90;;;;;;5048598;28;20055;-69
2024/01/23 12:10:11;;;;;;;19.90;4.18;;;8.00;99.90;;;;;;5049170;28;20037;-70
2024/01/23 12:12:37;;;;;;;31.45;4.72;;;8.00;99.90;;;;;;5050740;28;20041;-69
2024/01/23 12:15:07;;;;;;;25.90;4.18;;;8.00;99.90;;;;;;5047343;28;20041;-70
2024/01/23 12:17:34;;;;;;;19.85;4.07;;;8.00;99.90;;;;;;5047683;28;20119;-68
2024/01/23 12:20:05;;;;;;;26.00;5.00;;;8.10;99.90;;;;;;5047968;28;20037;-73
2024/01/23 12:22:31;;;;;;;20.02;4.00;;;8.10;99.90;;;;;;5039436;28;20044;-69
2024/01/23 12:24:57;;;;;;;22.63;3.88;;;8.20;99.90;;;;;;5046429;28;20037;-68
2024/01/23 12:27:25;;;;;;;22.17;3.95;;;8.20;99.90;;;;;;5041157;28;20042;-68
2024/01/23 12:29:51;;;;;;;25.27;4.13;;;8.20;99.90;;;;;;5022777;28;20050;-70
2024/01/23 12:32:17;;;;;;;24.35;3.90;;;8.30;99.90;;;;;;5043402;28;20056;-70
2024/01/23 12:34:45;;;;;;;23.17;4.05;;;8.20;99.90;;;;;;5043675;28;20051;-69
2024/01/23 12:37:11;;;;;;;25.55;3.95;;;8.30;99.90;;;;;;5042332;28;20384;-69
2024/01/23 12:39:36;;;;;;;17.90;2.95;;;8.30;99.90;;;;;;5031177;28;20116;-70
2024/01/23 12:42:02;;;;;;;22.73;3.90;;;8.30;99.90;;;;;;5029600;28;20053;-70
2024/01/23 12:44:29;;;;;;;19.80;3.53;;;8.30;99.90;;;;;;5043419;28;20051;-69